createdAt,value
2023-05-25T00:00:29.117Z,100712.28
2023-05-25T00:03:32.391Z,100723.06
2023-05-25T00:06:38.230Z,100711.78
2023-05-25T00:09:41.546Z,100713.63
2023-05-25T00:12:43.135Z,100722.91
2023-05-25T00:15:44.954Z,100721.78
2023-05-25T00:18:48.555Z,100713.59
2023-05-25T00:21:51.238Z,100724.75
2023-05-25T00:24:52.862Z,100725.06
2023-05-25T00:27:54.461Z,100728.38
2023-05-25T00:30:57.555Z,100716.53
2023-05-25T00:34:00.639Z,100721.84
2023-05-25T00:37:03.265Z,100729.69
2023-05-25T00:40:08.821Z,100728.38
2023-05-25T00:43:11.029Z,100735.25
2023-05-25T00:46:17.115Z,100740.47
2023-05-25T00:49:20.920Z,100736.31
2023-05-25T00:52:23.942Z,100727.03
2023-05-25T00:55:30.002Z,100739.00
2023-05-25T00:58:33.758Z,100741.31
2023-05-25T01:01:40.331Z,100746.50
2023-05-25T01:04:45.635Z,100734.34
2023-05-25T01:07:47.941Z,100742.22
2023-05-25T01:10:51.534Z,100733.06
2023-05-25T01:13:54.533Z,100750.22
2023-05-25T01:16:57.254Z,100725.59
2023-05-25T01:20:09.575Z,100742.41
2023-05-25T01:23:17.648Z,100746.56
2023-05-25T01:26:23.731Z,100743.56
2023-05-25T01:29:28.182Z,100757.56
2023-05-25T01:32:32.566Z,100756.41
2023-05-25T01:35:35.375Z,100762.25
2023-05-25T01:38:38.087Z,100754.56
2023-05-25T01:41:39.743Z,100750.75
2023-05-25T01:44:41.654Z,100756.91
2023-05-25T01:48:04.055Z,100759.94
2023-05-25T01:51:32.243Z,100760.44
2023-05-25T01:54:37.926Z,100744.78
2023-05-25T01:57:43.442Z,100750.63
2023-05-25T02:00:47.832Z,100755.75
2023-05-25T02:03:50.068Z,100750.75
2023-05-25T02:06:52.544Z,100755.41
2023-05-25T02:09:54.161Z,100764.09
2023-05-25T02:12:55.798Z,100757.25
2023-05-25T02:15:57.496Z,100767.63
2023-05-25T02:18:59.311Z,100771.94
2023-05-25T02:22:00.894Z,100778.59
2023-05-25T02:25:02.647Z,100784.91
2023-05-25T02:28:04.664Z,100784.91
2023-05-25T02:31:06.320Z,100767.09
2023-05-25T02:34:08.121Z,100784.91
2023-05-25T02:37:10.734Z,100779.78
2023-05-25T02:40:12.670Z,100788.94
2023-05-25T02:43:14.414Z,100785.59
2023-05-25T02:46:16.189Z,100781.09
2023-05-25T02:49:17.823Z,100775.56
2023-05-25T02:52:19.415Z,100796.91
2023-05-25T02:55:21.031Z,100800.22
2023-05-25T02:58:22.712Z,100798.56
2023-05-25T03:01:25.534Z,100803.91
2023-05-25T03:04:27.408Z,100808.41
2023-05-25T03:07:29.029Z,100795.38
2023-05-25T03:10:30.814Z,100806.84
2023-05-25T03:13:32.518Z,100802.88
2023-05-25T03:16:36.500Z,100809.75
2023-05-25T03:19:38.332Z,100806.75
2023-05-25T03:22:39.988Z,100812.91
2023-05-25T03:25:41.729Z,100806.56
2023-05-25T03:28:43.373Z,100810.88
2023-05-25T03:31:44.992Z,100814.38
2023-05-25T03:34:46.596Z,100818.88
2023-05-25T03:37:48.226Z,100829.22
2023-05-25T03:40:49.796Z,100825.03
2023-05-25T03:43:51.352Z,100831.69
2023-05-25T03:46:52.932Z,100833.03
2023-05-25T03:49:54.550Z,100822.38
2023-05-25T03:52:56.151Z,100834.50
2023-05-25T03:55:57.817Z,100829.69
2023-05-25T03:59:00.935Z,100835.03
2023-05-25T04:02:02.530Z,100839.69
2023-05-25T04:05:04.296Z,100841.00
2023-05-25T04:08:06.975Z,100834.84
2023-05-25T04:11:08.552Z,100847.97
2023-05-25T04:14:10.156Z,100848.13
2023-05-25T04:17:11.757Z,100836.31
2023-05-25T04:20:13.659Z,100859.97
2023-05-25T04:23:15.348Z,100849.00
2023-05-25T04:26:17.074Z,100853.97
2023-05-25T04:29:18.687Z,100853.44
2023-05-25T04:32:21.472Z,100855.22
2023-05-25T04:35:23.537Z,100847.34
2023-05-25T04:38:25.493Z,100865.84
2023-05-25T04:41:29.874Z,100864.59
2023-05-25T04:44:32.270Z,100864.38
2023-05-25T04:47:34.795Z,100861.75
2023-05-25T04:50:37.404Z,100848.44
2023-05-25T04:53:38.966Z,100856.28
2023-05-25T04:56:40.722Z,100858.34
2023-05-25T04:59:42.425Z,100862.28
2023-05-25T05:02:44.220Z,100863.41
2023-05-25T05:05:46.073Z,100860.28
2023-05-25T05:08:47.820Z,100865.88
2023-05-25T05:11:49.433Z,100871.22
2023-05-25T05:14:51.107Z,100868.72
2023-05-25T05:17:53.915Z,100863.38
2023-05-25T05:20:55.774Z,100876.66
2023-05-25T05:23:57.458Z,100875.13
2023-05-25T05:26:59.487Z,100873.88
2023-05-25T05:30:01.388Z,100877.41
2023-05-25T05:33:03.384Z,100877.59
2023-05-25T05:36:05.701Z,100884.75
2023-05-25T05:39:07.326Z,100883.94
2023-05-25T05:42:09.604Z,100885.69
2023-05-25T05:45:11.507Z,100883.19
2023-05-25T05:48:13.256Z,100878.38
2023-05-25T05:51:14.904Z,100885.78
2023-05-25T05:54:16.480Z,100884.66
2023-05-25T05:57:18.124Z,100888.94
2023-05-25T06:00:20.143Z,100897.34
2023-05-25T06:03:23.004Z,100892.56
2023-05-25T06:06:24.685Z,100898.28
2023-05-25T06:09:26.611Z,100905.09
2023-05-25T06:12:28.207Z,100906.03
2023-05-25T06:15:29.803Z,100903.63
2023-05-25T06:18:31.445Z,100899.22
2023-05-25T06:21:33.087Z,100894.72
2023-05-25T06:24:34.692Z,100899.66
2023-05-25T06:27:36.798Z,100910.97
2023-05-25T06:30:38.538Z,100904.91
2023-05-25T06:33:40.119Z,100913.50
2023-05-25T06:36:42.031Z,100906.69
2023-05-25T06:39:43.782Z,100918.28
2023-05-25T06:42:45.563Z,100920.66
2023-05-25T06:45:47.624Z,100914.34
2023-05-25T06:48:49.477Z,100903.41
2023-05-25T06:51:51.359Z,100911.50
2023-05-25T06:54:52.968Z,100917.31
2023-05-25T06:57:54.609Z,100915.72
2023-05-25T07:00:56.261Z,100917.44
2023-05-25T07:03:57.891Z,100923.66
2023-05-25T07:06:59.557Z,100923.22
2023-05-25T07:10:04.159Z,100940.06
2023-05-25T07:13:05.932Z,100936.28
2023-05-25T07:16:07.582Z,100923.47
2023-05-25T07:19:09.188Z,100934.84
2023-05-25T07:22:11.097Z,100935.94
2023-05-25T07:25:12.761Z,100925.28
2023-05-25T07:28:14.412Z,100933.34
2023-05-25T07:31:16.423Z,100935.16
2023-05-25T07:34:18.264Z,100933.44
2023-05-25T07:37:19.915Z,100936.88
2023-05-25T07:40:21.549Z,100934.47
2023-05-25T07:43:23.222Z,100935.00
2023-05-25T07:46:26.000Z,100943.31
2023-05-25T07:49:27.643Z,100939.09
2023-05-25T07:52:29.247Z,100930.91
2023-05-25T07:55:40.130Z,100937.38
2023-05-25T07:58:41.757Z,100930.91
2023-05-25T08:01:43.544Z,100935.91
2023-05-25T08:04:45.314Z,100938.44
2023-05-25T08:07:47.137Z,100944.44
2023-05-25T08:10:48.793Z,100940.53
2023-05-25T08:13:51.144Z,100934.31
2023-05-25T08:16:52.944Z,100940.38
2023-05-25T08:19:56.312Z,100949.78
2023-05-25T08:22:59.241Z,100943.00
2023-05-25T08:26:02.635Z,100940.09
2023-05-25T08:29:07.574Z,100948.63
2023-05-25T08:32:09.183Z,100941.75
2023-05-25T08:35:11.075Z,100955.19
2023-05-25T08:38:13.920Z,100958.19
2023-05-25T08:41:16.713Z,100951.78
2023-05-25T08:44:18.666Z,100949.25
2023-05-25T08:47:22.938Z,100943.69
2023-05-25T08:50:26.807Z,100944.03
2023-05-25T08:53:31.427Z,100956.44
2023-05-25T08:56:38.414Z,100949.13
2023-05-25T08:59:50.427Z,100948.84
2023-05-25T09:03:07.251Z,100941.44
2023-05-25T09:06:09.050Z,100930.41
2023-05-25T09:09:10.953Z,100938.66
2023-05-25T09:12:13.159Z,100929.56
2023-05-25T09:15:15.139Z,100938.63
2023-05-25T09:18:16.797Z,100939.31
2023-05-25T09:21:18.450Z,100939.00
2023-05-25T09:24:22.272Z,100938.66
2023-05-25T09:27:24.072Z,100938.97
2023-05-25T09:30:27.853Z,100931.03
2023-05-25T09:33:29.623Z,100940.03
2023-05-25T09:36:32.390Z,100942.19
2023-05-25T09:39:34.150Z,100944.50
2023-05-25T09:42:36.548Z,100942.75
2023-05-25T09:45:38.586Z,100932.34
2023-05-25T09:48:41.381Z,100943.44
2023-05-25T09:51:43.087Z,100937.22
2023-05-25T09:54:49.666Z,100944.81
2023-05-25T09:57:55.641Z,100951.56
2023-05-25T10:00:57.366Z,100941.91
2023-05-25T10:04:04.711Z,100942.94
2023-05-25T10:07:08.499Z,100936.59
2023-05-25T10:10:12.381Z,100938.44
2023-05-25T10:13:15.125Z,100930.28
2023-05-25T10:16:18.399Z,100933.56
2023-05-25T10:19:26.004Z,100932.72
2023-05-25T10:22:37.436Z,100927.94
2023-05-25T10:25:47.054Z,100924.44
2023-05-25T10:28:51.533Z,100921.94
2023-05-25T10:31:54.228Z,100930.28
2023-05-25T10:34:57.409Z,100919.38
2023-05-25T10:38:00.733Z,100916.78
2023-05-25T10:41:05.829Z,100923.06
2023-05-25T10:44:09.427Z,100911.56
2023-05-25T10:47:12.106Z,100918.41
2023-05-25T10:50:21.729Z,100913.03
2023-05-25T10:53:23.407Z,100914.63
2023-05-25T10:56:25.132Z,100910.84
2023-05-25T10:59:29.510Z,100916.25
2023-05-25T11:02:32.406Z,100915.94
2023-05-25T11:05:35.297Z,100904.09
2023-05-25T11:08:51.065Z,100903.22
2023-05-25T11:11:53.214Z,100884.06
2023-05-25T11:15:12.838Z,100880.69
2023-05-25T11:18:18.004Z,100884.69
2023-05-25T11:21:30.272Z,100892.22
2023-05-25T11:24:32.020Z,100885.47
2023-05-25T11:27:46.296Z,100878.75
2023-05-25T11:30:48.682Z,100877.28
2023-05-25T11:33:57.386Z,100876.38
2023-05-25T11:37:02.362Z,100874.44
2023-05-25T11:40:07.233Z,100854.53
2023-05-25T11:43:09.810Z,100865.47
2023-05-25T11:46:12.681Z,100854.97
2023-05-25T11:49:14.304Z,100857.38
2023-05-25T11:52:22.310Z,100846.59
2023-05-25T11:55:24.032Z,100856.44
2023-05-25T11:58:25.832Z,100857.28
2023-05-25T12:01:27.489Z,100852.94
2023-05-25T12:04:30.691Z,100849.03
2023-05-25T12:07:32.638Z,100829.47
2023-05-25T12:10:34.246Z,100827.13
2023-05-25T12:13:35.922Z,100837.53
2023-05-25T12:16:41.396Z,100826.56
2023-05-25T12:19:43.204Z,100830.59
2023-05-25T12:22:46.542Z,100833.63
2023-05-25T12:25:50.645Z,100824.56
2023-05-25T12:29:04.107Z,100834.94
2023-05-25T12:32:06.839Z,100823.97
2023-05-25T12:35:08.853Z,100832.22
2023-05-25T12:38:15.108Z,100823.94
2023-05-25T12:41:16.696Z,100826.25
2023-05-25T12:44:44.705Z,100813.25
2023-05-25T12:47:46.354Z,100832.00
2023-05-25T12:50:58.480Z,100829.31
2023-05-25T12:54:01.592Z,100824.63
2023-05-25T12:57:07.838Z,100813.72
2023-05-25T13:00:10.184Z,100819.00
2023-05-25T13:03:11.871Z,100801.44
2023-05-25T13:06:13.616Z,100807.50
2023-05-25T13:09:16.136Z,100807.94
2023-05-25T13:12:18.071Z,100794.06
2023-05-25T13:15:21.696Z,100789.78
2023-05-25T13:18:23.375Z,100786.31
2023-05-25T13:21:25.005Z,100786.91
2023-05-25T13:24:26.587Z,100779.44
2023-05-25T13:27:28.653Z,100781.28
2023-05-25T13:30:30.422Z,100768.53
2023-05-25T13:33:32.181Z,100759.84
2023-05-25T13:36:34.826Z,100756.81
2023-05-25T13:39:36.402Z,100754.59
2023-05-25T13:42:37.957Z,100748.22
2023-05-25T13:45:39.875Z,100753.66
2023-05-25T13:48:47.286Z,100745.69
2023-05-25T13:51:48.915Z,100743.25
2023-05-25T13:54:50.512Z,100738.84
2023-05-25T13:57:52.336Z,100741.22
2023-05-25T14:00:54.033Z,100734.00
2023-05-25T14:03:56.420Z,100732.84
2023-05-25T14:06:58.166Z,100726.22
2023-05-25T14:10:00.468Z,100713.13
2023-05-25T14:13:02.256Z,100718.59
2023-05-25T14:16:03.997Z,100719.06
2023-05-25T14:19:05.878Z,100717.66
2023-05-25T14:22:13.968Z,100716.06
2023-05-25T14:25:16.633Z,100711.44
2023-05-25T14:28:18.276Z,100707.41
2023-05-25T14:31:20.193Z,100698.91
2023-05-25T14:34:21.811Z,100707.69
2023-05-25T14:37:23.377Z,100692.31
2023-05-25T14:40:25.031Z,100698.88
2023-05-25T14:43:26.664Z,100708.50
2023-05-25T14:46:28.289Z,100709.44
2023-05-25T14:49:29.905Z,100704.06
2023-05-25T14:52:31.550Z,100699.81
2023-05-25T14:55:33.315Z,100702.28
2023-05-25T14:58:35.034Z,100693.75
2023-05-25T15:01:37.073Z,100692.22
2023-05-25T15:04:38.682Z,100697.44
2023-05-25T15:07:41.506Z,100693.75
2023-05-25T15:10:43.159Z,100689.88
2023-05-25T15:13:45.003Z,100692.53
2023-05-25T15:16:46.649Z,100681.78
2023-05-25T15:19:48.244Z,100679.75
2023-05-25T15:22:51.421Z,100676.59
2023-05-25T15:25:53.068Z,100680.03
2023-05-25T15:28:54.658Z,100677.66
2023-05-25T15:31:56.297Z,100687.16
2023-05-25T15:34:57.903Z,100693.84
2023-05-25T15:38:00.462Z,100689.00
2023-05-25T15:41:02.077Z,100688.63
2023-05-25T15:44:08.201Z,100680.75
2023-05-25T15:47:09.867Z,100685.16
2023-05-25T15:50:11.878Z,100687.94
2023-05-25T15:53:13.520Z,100693.31
2023-05-25T15:56:15.243Z,100681.88
2023-05-25T15:59:16.872Z,100683.47
2023-05-25T16:02:18.492Z,100689.22
2023-05-25T16:05:20.173Z,100674.09
2023-05-25T16:08:22.233Z,100675.97
2023-05-25T16:11:24.199Z,100686.00
2023-05-25T16:14:25.917Z,100670.66
2023-05-25T16:17:28.478Z,100682.25
2023-05-25T16:20:30.105Z,100683.00
2023-05-25T16:23:31.765Z,100685.03
2023-05-25T16:26:34.956Z,100675.25
2023-05-25T16:29:36.566Z,100680.16
2023-05-25T16:32:38.289Z,100673.84
2023-05-25T16:35:39.977Z,100680.66
2023-05-25T16:38:41.672Z,100680.59
2023-05-25T16:41:43.334Z,100678.78
2023-05-25T16:44:45.051Z,100677.06
2023-05-25T16:47:46.935Z,100672.50
2023-05-25T16:50:48.536Z,100682.13
2023-05-25T16:53:51.843Z,100692.88
2023-05-25T16:56:54.652Z,100685.72
2023-05-25T16:59:56.243Z,100697.47
2023-05-25T17:02:58.009Z,100695.94
2023-05-25T17:05:59.688Z,100697.97
2023-05-25T17:09:01.279Z,100704.28
2023-05-25T17:12:03.675Z,100704.06
2023-05-25T17:15:05.888Z,100694.56
2023-05-25T17:18:08.123Z,100697.84
2023-05-25T17:21:09.828Z,100693.66
2023-05-25T17:24:11.719Z,100695.69
2023-05-25T17:27:13.742Z,100704.25
2023-05-25T17:30:15.853Z,100703.09
2023-05-25T17:33:17.518Z,100705.56
2023-05-25T17:36:19.137Z,100710.59
2023-05-25T17:39:20.770Z,100699.03
2023-05-25T17:42:22.396Z,100704.38
2023-05-25T17:45:24.074Z,100698.28
2023-05-25T17:48:25.992Z,100695.44
2023-05-25T17:51:27.595Z,100707.94
2023-05-25T17:54:29.271Z,100714.59
2023-05-25T17:57:31.224Z,100718.78
2023-05-25T18:00:32.882Z,100710.94
2023-05-25T18:03:34.685Z,100714.47
2023-05-25T18:06:37.072Z,100712.66
2023-05-25T18:09:38.715Z,100701.09
2023-05-25T18:12:41.265Z,100720.94
2023-05-25T18:15:43.020Z,100710.19
2023-05-25T18:18:44.836Z,100718.47
2023-05-25T18:21:46.503Z,100708.28
2023-05-25T18:24:48.102Z,100717.19
2023-05-25T18:27:49.684Z,100733.09
2023-05-25T18:30:51.326Z,100719.81
2023-05-25T18:33:52.986Z,100735.31
2023-05-25T18:36:54.622Z,100742.69
2023-05-25T18:39:56.287Z,100743.28
2023-05-25T18:42:58.059Z,100755.34
2023-05-25T18:46:01.079Z,100745.78
2023-05-25T18:49:02.675Z,100759.56
2023-05-25T18:52:06.319Z,100761.78
2023-05-25T18:55:08.594Z,100760.44
2023-05-25T18:58:10.234Z,100772.00
2023-05-25T19:01:11.828Z,100777.25
2023-05-25T19:04:13.577Z,100778.22
2023-05-25T19:07:15.258Z,100780.50
2023-05-25T19:10:17.533Z,100786.34
2023-05-25T19:13:20.889Z,100785.69
2023-05-25T19:16:22.559Z,100780.25
2023-05-25T19:19:24.376Z,100774.31
2023-05-25T19:22:26.105Z,100782.94
2023-05-25T19:25:27.813Z,100783.63
2023-05-25T19:28:29.493Z,100779.69
2023-05-25T19:31:31.175Z,100780.88
2023-05-25T19:34:32.840Z,100776.38
2023-05-25T19:37:37.119Z,100778.16
2023-05-25T19:40:38.840Z,100780.78
2023-05-25T19:43:40.539Z,100779.53
2023-05-25T19:46:42.417Z,100786.50
2023-05-25T19:49:44.102Z,100787.84
2023-05-25T19:52:45.769Z,100789.63
2023-05-25T19:55:47.395Z,100792.47
2023-05-25T19:58:48.989Z,100792.66
2023-05-25T20:01:50.695Z,100793.28
2023-05-25T20:04:52.359Z,100797.19
2023-05-25T20:07:55.870Z,100787.84
2023-05-25T20:10:57.539Z,100794.25
2023-05-25T20:13:59.163Z,100808.81
2023-05-25T20:17:01.051Z,100802.44
2023-05-25T20:20:05.163Z,100799.88
2023-05-25T20:23:07.065Z,100803.53
2023-05-25T20:26:08.720Z,100796.53
2023-05-25T20:29:10.458Z,100791.03
2023-05-25T20:32:12.366Z,100791.75
2023-05-25T20:35:14.211Z,100789.53
2023-05-25T20:38:15.797Z,100792.59
2023-05-25T20:41:17.533Z,100805.88
2023-05-25T20:44:19.140Z,100803.28
2023-05-25T20:47:22.806Z,100808.22
2023-05-25T20:50:24.395Z,100800.28
2023-05-25T20:53:26.078Z,100810.44
2023-05-25T20:56:27.784Z,100805.09
2023-05-25T20:59:31.697Z,100798.41
2023-05-25T21:02:33.396Z,100813.06
2023-05-25T21:05:36.399Z,100796.25
2023-05-25T21:08:38.028Z,100805.91
2023-05-25T21:11:39.644Z,100810.31
2023-05-25T21:14:41.278Z,100820.84
2023-05-25T21:17:42.913Z,100815.72
2023-05-25T21:20:44.791Z,100819.56
2023-05-25T21:23:46.667Z,100824.91
2023-05-25T21:26:49.560Z,100818.34
2023-05-25T21:29:52.246Z,100810.38
2023-05-25T21:32:53.942Z,100819.16
2023-05-25T21:35:55.649Z,100821.25
2023-05-25T21:38:57.945Z,100827.31
2023-05-25T21:41:59.592Z,100828.50
2023-05-25T21:45:01.223Z,100824.34
2023-05-25T21:48:03.949Z,100818.63
2023-05-25T21:51:05.828Z,100830.16
2023-05-25T21:54:07.407Z,100834.50
2023-05-25T21:57:09.072Z,100841.97
2023-05-25T22:00:12.777Z,100838.00
2023-05-25T22:03:14.723Z,100839.75
2023-05-25T22:06:16.748Z,100834.66
2023-05-25T22:09:18.408Z,100835.97
2023-05-25T22:12:20.268Z,100843.13
2023-05-25T22:15:23.304Z,100826.00
2023-05-25T22:18:24.955Z,100832.72
2023-05-25T22:21:26.531Z,100815.09
2023-05-25T22:24:28.120Z,100831.28
2023-05-25T22:27:29.871Z,100811.41
2023-05-25T22:30:31.547Z,100825.09
2023-05-25T22:33:33.259Z,100829.50
2023-05-25T22:36:34.910Z,100811.38
2023-05-25T22:39:36.505Z,100826.41
2023-05-25T22:42:38.111Z,100816.59
2023-05-25T22:45:40.472Z,100829.53
2023-05-25T22:48:43.546Z,100822.41
2023-05-25T22:51:45.226Z,100829.78
2023-05-25T22:54:46.886Z,100826.81
2023-05-25T22:57:48.511Z,100832.66
2023-05-25T23:00:50.096Z,100828.69
2023-05-25T23:03:51.840Z,100824.69
2023-05-25T23:06:53.609Z,100818.22
2023-05-25T23:09:55.164Z,100811.91
2023-05-25T23:12:57.044Z,100810.91
2023-05-25T23:15:59.567Z,100816.41
2023-05-25T23:19:01.460Z,100812.78
2023-05-25T23:22:03.107Z,100810.94
2023-05-25T23:25:05.096Z,100813.31
2023-05-25T23:28:06.815Z,100794.84
2023-05-25T23:31:08.483Z,100807.84
2023-05-25T23:34:10.141Z,100807.50
2023-05-25T23:37:11.826Z,100812.88
2023-05-25T23:40:13.439Z,100806.22
2023-05-25T23:43:15.159Z,100811.88
2023-05-25T23:46:17.413Z,100808.19
2023-05-25T23:49:19.094Z,100814.53
2023-05-25T23:52:20.956Z,100815.53
2023-05-25T23:55:22.639Z,100816.88
2023-05-25T23:58:24.226Z,100810.38
